MetarTest
Metar LSZC 302050Z 18004KT 110V220 9999 -TSRA SCT032CB SCT036 18/17 Q1014
Taf LSME 302013Z 3020/3123 33005KT 9999 -SHRA BKN034 BKN050 TEMPO 3020/3022 24018G30KT 4500 TSRA SCT040CB TEMPO 3022/3102 SHRA SCT040TCU TEMPO 3118/3123 SHRA SCT035TCU PROB30 TEMPO 3118/3123 24015G27KT TSRA SCT035CB
Metar LSZH 302050Z VRB03KT 9999 SHRA FEW017 SCT030CB BKN052 18/17 Q1014 TEMPO SHRA
Taf LSZH 302025Z 3021/0103 VRB02KT 9999 FEW028 BKN052 TX22/3114Z TN16/3104Z PROB40 TEMPO 3021/3024 SHRA SCT030TCU PROB30 TEMPO 3021/3023 TSRA SCT040CB BECMG 3108/3111 30007KT BECMG 3118/3121 VRB02KT BECMG 3120/3123 SHRA SCT045TCU PROB30 TEMPO 3121/0103 4500 TSRA SCT040CB
QNH LSZC 1014
Privacy Settings
We use cookies to enhance your experience while using our website. If you are using our Services via a browser you can restrict, block or remove cookies through your web browser settings. We also use content and scripts from third parties that may use tracking technologies. You can selectively provide your consent below to allow such third party embeds. For complete information about the cookies we use, data we collect and how we process them, please check our Privacy Policy
Youtube
Consent to display content from Youtube
Vimeo
Consent to display content from Vimeo
Google Maps
Consent to display content from Google